Tilton, IL (61833)

7:09 AM CST on December 05, 2016 (GMT -0600)
| | Change Station

Elev -9999 ft 0.00 °N, 0.00 °E | Updated

Overcast
Overcast
°F
Feels Like °F
N
Wind Variable Wind from North
Gusts mph

Today
High -- | Low -- °F
--% Chance of Precip.
Yesterday
High -- | Low -- °F
Precip. -- in
Pressure 30.04 in
Visibility 10.0 miles
Clouds Overcast 700 ft
Dew Point Not available.
Humidity Not available.
Rainfall --
Snow Depth Not available.
6:57 AM 4:24 PM
Waxing Crescent, 31% visible
METAR KDNV 051255Z AUTO 20005KT 10SM OVC007 00/00 A3004 RMK AO2 T00001005
Pressure 30.04 in
Visibility 10.0 miles
Clouds Overcast 700 ft
Dew Point Not available.
Humidity Not available.
Rainfall --
Snow Depth Not available.
6:57 AM 4:24 PM
Waxing Crescent, 31% visible
METAR KDNV 051255Z AUTO 20005KT 10SM OVC007 00/00 A3004 RMK AO2 T00001005

10-Day Weather Forecast

Almanac

Astronomy

Dec. 05, 2016 Rise Set
Actual Time
Civil Twilight
Nautical Twilight
Astronomical Twilight
Moon
Length of Visible Light
Length of Day
Tomorrow will be .
, % of the Moon is Illuminated

Today's Extremes

State Highs State Lows

Community

WunderPhotos

Upload Photos

1,955,777 photos uploaded!

WunderBlog® & News

Nearby

Air Quality

  Air Quality AQ Index Pollutant
Not available.

Snow Depth

Station Depth Elevation

Earthquake Activity

City Distance Mag. Time & Date
Minimum magnitude displayed is 2.5.

Coastal Water Temperatures

Place Temperature

Stations

Nearby Weather Stations

Station Location Temp. Windchill Dew Point Humidity Wind Precip. Elev Updated Type
                   

Watches & Warnings

There are currently no watches in effect.